sensor_id;sensor_type;location;lat;lon;timestamp;pressure;altitude;pressure_sealevel;temperature;humidity
20077;BME280;12348;42.710;23.378;2023-04-19T00:01:52;94733.13;;;9.55;100.00
20077;BME280;12348;42.710;23.378;2023-04-19T00:04:19;94726.75;;;9.51;100.00
20077;BME280;12348;42.710;23.378;2023-04-19T00:06:46;94725.75;;;9.46;100.00
20077;BME280;12348;42.710;23.378;2023-04-19T00:09:14;94723.06;;;9.46;100.00
20077;BME280;12348;42.710;23.378;2023-04-19T00:11:41;94718.25;;;9.43;100.00
20077;BME280;12348;42.710;23.378;2023-04-19T00:14:08;94719.63;;;9.41;100.00
20077;BME280;12348;42.710;23.378;2023-04-19T00:16:35;94725.66;;;9.33;100.00
20077;BME280;12348;42.710;23.378;2023-04-19T00:19:02;94725.09;;;9.36;100.00
20077;BME280;12348;42.710;23.378;2023-04-19T00:21:29;94718.56;;;9.42;100.00
20077;BME280;12348;42.710;23.378;2023-04-19T00:23:56;94710.31;;;9.52;100.00
20077;BME280;12348;42.710;23.378;2023-04-19T00:26:24;94713.31;;;9.51;100.00
20077;BME280;12348;42.710;23.378;2023-04-19T00:28:51;94709.09;;;9.44;100.00
20077;BME280;12348;42.710;23.378;2023-04-19T00:31:19;94710.56;;;9.37;100.00
20077;BME280;12348;42.710;23.378;2023-04-19T00:33:46;94704.84;;;9.25;100.00
20077;BME280;12348;42.710;23.378;2023-04-19T00:36:13;94707.44;;;9.30;100.00
20077;BME280;12348;42.710;23.378;2023-04-19T00:38:40;94705.13;;;9.42;100.00
20077;BME280;12348;42.710;23.378;2023-04-19T00:41:06;94712.00;;;9.48;100.00
20077;BME280;12348;42.710;23.378;2023-04-19T00:43:35;94714.19;;;9.46;100.00
20077;BME280;12348;42.710;23.378;2023-04-19T00:46:01;94705.91;;;9.42;100.00
20077;BME280;12348;42.710;23.378;2023-04-19T00:48:28;94711.06;;;9.39;100.00
20077;BME280;12348;42.710;23.378;2023-04-19T00:50:56;94709.53;;;9.33;100.00
20077;BME280;12348;42.710;23.378;2023-04-19T00:53:23;94705.41;;;9.21;100.00
20077;BME280;12348;42.710;23.378;2023-04-19T00:55:50;94698.75;;;9.19;100.00
20077;BME280;12348;42.710;23.378;2023-04-19T00:58:17;94696.56;;;9.21;100.00
20077;BME280;12348;42.710;23.378;2023-04-19T01:00:45;94694.81;;;9.30;100.00
20077;BME280;12348;42.710;23.378;2023-04-19T01:03:12;94705.84;;;9.29;100.00
20077;BME280;12348;42.710;23.378;2023-04-19T01:05:39;94703.16;;;9.29;100.00
20077;BME280;12348;42.710;23.378;2023-04-19T01:08:05;94702.38;;;9.28;100.00
20077;BME280;12348;42.710;23.378;2023-04-19T01:10:33;94703.38;;;9.32;100.00
20077;BME280;12348;42.710;23.378;2023-04-19T01:13:00;94700.13;;;9.35;100.00
20077;BME280;12348;42.710;23.378;2023-04-19T01:15:27;94696.31;;;9.55;100.00
20077;BME280;12348;42.710;23.378;2023-04-19T01:17:55;94693.91;;;9.54;100.00
20077;BME280;12348;42.710;23.378;2023-04-19T01:20:22;94700.44;;;9.47;100.00
20077;BME280;12348;42.710;23.378;2023-04-19T01:22:50;94690.50;;;9.48;100.00
20077;BME280;12348;42.710;23.378;2023-04-19T01:25:17;94699.66;;;9.47;100.00
20077;BME280;12348;42.710;23.378;2023-04-19T01:27:44;94701.56;;;9.46;100.00
20077;BME280;12348;42.710;23.378;2023-04-19T01:30:11;94696.59;;;9.54;100.00
20077;BME280;12348;42.710;23.378;2023-04-19T01:32:38;94702.63;;;9.64;100.00
20077;BME280;12348;42.710;23.378;2023-04-19T01:35:06;94686.84;;;9.58;100.00
20077;BME280;12348;42.710;23.378;2023-04-19T01:37:35;94690.13;;;9.55;100.00
20077;BME280;12348;42.710;23.378;2023-04-19T01:40:04;94692.97;;;9.44;100.00
20077;BME280;12348;42.710;23.378;2023-04-19T01:42:31;94693.84;;;9.40;100.00
20077;BME280;12348;42.710;23.378;2023-04-19T01:44:58;94681.22;;;9.40;100.00
20077;BME280;12348;42.710;23.378;2023-04-19T01:47:24;94683.84;;;9.45;100.00
20077;BME280;12348;42.710;23.378;2023-04-19T01:49:51;94682.31;;;9.39;100.00
20077;BME280;12348;42.710;23.378;2023-04-19T01:52:18;94677.72;;;9.40;100.00
20077;BME280;12348;42.710;23.378;2023-04-19T01:54:45;94683.63;;;9.42;100.00
20077;BME280;12348;42.710;23.378;2023-04-19T01:57:13;94674.56;;;9.38;100.00
20077;BME280;12348;42.710;23.378;2023-04-19T01:59:40;94686.97;;;9.34;100.00
20077;BME280;12348;42.710;23.378;2023-04-19T02:02:08;94679.78;;;9.29;100.00
20077;BME280;12348;42.710;23.378;2023-04-19T02:04:36;94683.13;;;9.21;100.00
20077;BME280;12348;42.710;23.378;2023-04-19T02:07:02;94677.25;;;9.19;100.00
20077;BME280;12348;42.710;23.378;2023-04-19T02:09:29;94681.41;;;9.11;100.00
20077;BME280;12348;42.710;23.378;2023-04-19T02:11:57;94672.47;;;9.16;100.00
20077;BME280;12348;42.710;23.378;2023-04-19T02:14:26;94668.09;;;9.20;100.00
20077;BME280;12348;42.710;23.378;2023-04-19T02:16:53;94666.56;;;9.14;100.00
20077;BME280;12348;42.710;23.378;2023-04-19T02:19:20;94664.84;;;9.04;100.00
20077;BME280;12348;42.710;23.378;2023-04-19T02:21:46;94679.75;;;8.96;100.00
20077;BME280;12348;42.710;23.378;2023-04-19T02:24:13;94679.31;;;8.89;100.00
20077;BME280;12348;42.710;23.378;2023-04-19T02:26:40;94673.63;;;9.10;100.00
20077;BME280;12348;42.710;23.378;2023-04-19T02:29:08;94680.00;;;9.14;100.00
20077;BME280;12348;42.710;23.378;2023-04-19T02:31:39;94673.63;;;9.10;100.00
20077;BME280;12348;42.710;23.378;2023-04-19T02:34:05;94672.09;;;9.04;100.00
20077;BME280;12348;42.710;23.378;2023-04-19T02:36:33;94664.69;;;8.95;100.00
20077;BME280;12348;42.710;23.378;2023-04-19T02:39:00;94670.44;;;8.89;100.00
20077;BME280;12348;42.710;23.378;2023-04-19T02:41:27;94675.00;;;8.88;100.00
20077;BME280;12348;42.710;23.378;2023-04-19T02:43:53;94672.31;;;8.88;100.00
20077;BME280;12348;42.710;23.378;2023-04-19T02:46:20;94675.28;;;8.87;100.00
20077;BME280;12348;42.710;23.378;2023-04-19T02:48:48;94662.44;;;8.84;100.00
20077;BME280;12348;42.710;23.378;2023-04-19T02:51:16;94672.31;;;8.88;100.00
20077;BME280;12348;42.710;23.378;2023-04-19T02:53:43;94667.25;;;8.87;100.00
20077;BME280;12348;42.710;23.378;2023-04-19T02:56:10;94672.38;;;8.83;100.00
20077;BME280;12348;42.710;23.378;2023-04-19T02:58:37;94666.22;;;8.83;100.00
20077;BME280;12348;42.710;23.378;2023-04-19T03:01:03;94668.63;;;8.84;100.00
20077;BME280;12348;42.710;23.378;2023-04-19T03:03:31;94666.94;;;8.88;100.00
20077;BME280;12348;42.710;23.378;2023-04-19T03:05:59;94664.34;;;8.83;100.00
20077;BME280;12348;42.710;23.378;2023-04-19T03:08:26;94664.84;;;8.85;100.00
20077;BME280;12348;42.710;23.378;2023-04-19T03:10:53;94664.78;;;8.90;100.00
20077;BME280;12348;42.710;23.378;2023-04-19T03:13:20;94670.72;;;8.87;100.00
20077;BME280;12348;42.710;23.378;2023-04-19T03:15:46;94674.06;;;8.79;100.00
20077;BME280;12348;42.710;23.378;2023-04-19T03:18:13;94671.47;;;8.74;100.00
20077;BME280;12348;42.710;23.378;2023-04-19T03:20:41;94664.25;;;8.88;100.00
20077;BME280;12348;42.710;23.378;2023-04-19T03:23:09;94666.50;;;8.81;100.00
20077;BME280;12348;42.710;23.378;2023-04-19T03:25:36;94662.66;;;8.87;100.00
20077;BME280;12348;42.710;23.378;2023-04-19T03:28:03;94661.97;;;8.82;100.00
20077;BME280;12348;42.710;23.378;2023-04-19T03:30:30;94662.22;;;8.80;100.00
20077;BME280;12348;42.710;23.378;2023-04-19T03:32:57;94668.81;;;8.69;100.00
20077;BME280;12348;42.710;23.378;2023-04-19T03:35:24;94667.00;;;8.64;100.00
20077;BME280;12348;42.710;23.378;2023-04-19T03:37:51;94671.34;;;8.60;100.00
20077;BME280;12348;42.710;23.378;2023-04-19T03:40:20;94672.94;;;8.61;100.00
20077;BME280;12348;42.710;23.378;2023-04-19T03:42:46;94660.84;;;8.64;100.00
20077;BME280;12348;42.710;23.378;2023-04-19T03:45:14;94660.41;;;8.57;100.00
20077;BME280;12348;42.710;23.378;2023-04-19T03:47:41;94668.53;;;8.52;100.00
20077;BME280;12348;42.710;23.378;2023-04-19T03:50:08;94668.69;;;8.60;100.00
20077;BME280;12348;42.710;23.378;2023-04-19T03:52:35;94667.31;;;8.63;100.00
20077;BME280;12348;42.710;23.378;2023-04-19T03:55:02;94664.91;;;8.61;100.00
20077;BME280;12348;42.710;23.378;2023-04-19T03:57:31;94669.03;;;8.54;100.00
20077;BME280;12348;42.710;23.378;2023-04-19T03:59:58;94669.66;;;8.45;100.00
20077;BME280;12348;42.710;23.378;2023-04-19T04:02:25;94676.16;;;8.39;100.00
20077;BME280;12348;42.710;23.378;2023-04-19T04:04:53;94676.47;;;8.38;100.00
20077;BME280;12348;42.710;23.378;2023-04-19T04:07:20;94673.66;;;8.48;100.00
20077;BME280;12348;42.710;23.378;2023-04-19T04:09:49;94675.97;;;8.55;100.00
20077;BME280;12348;42.710;23.378;2023-04-19T04:12:16;94675.94;;;8.60;100.00
20077;BME280;12348;42.710;23.378;2023-04-19T04:14:44;94681.34;;;8.55;100.00
20077;BME280;12348;42.710;23.378;2023-04-19T04:17:11;94680.28;;;8.56;100.00
20077;BME280;12348;42.710;23.378;2023-04-19T04:19:38;94676.19;;;8.58;100.00
20077;BME280;12348;42.710;23.378;2023-04-19T04:22:05;94676.19;;;8.58;100.00
20077;BME280;12348;42.710;23.378;2023-04-19T04:24:37;94678.28;;;8.66;100.00
20077;BME280;12348;42.710;23.378;2023-04-19T04:27:05;94683.00;;;8.93;100.00
20077;BME280;12348;42.710;23.378;2023-04-19T04:29:34;94681.69;;;8.91;100.00
20077;BME280;12348;42.710;23.378;2023-04-19T04:32:03;94680.16;;;9.04;100.00
20077;BME280;12348;42.710;23.378;2023-04-19T04:34:30;94678.84;;;9.20;100.00
20077;BME280;12348;42.710;23.378;2023-04-19T04:36:57;94679.22;;;9.13;100.00
20077;BME280;12348;42.710;23.378;2023-04-19T04:39:24;94678.56;;;9.21;100.00
20077;BME280;12348;42.710;23.378;2023-04-19T04:41:51;94679.78;;;9.10;100.00
20077;BME280;12348;42.710;23.378;2023-04-19T04:44:18;94683.50;;;8.95;100.00
20077;BME280;12348;42.710;23.378;2023-04-19T04:46:46;94691.97;;;9.03;100.00
20077;BME280;12348;42.710;23.378;2023-04-19T04:49:14;94685.97;;;9.11;100.00
20077;BME280;12348;42.710;23.378;2023-04-19T04:51:41;94687.28;;;9.13;100.00
20077;BME280;12348;42.710;23.378;2023-04-19T04:54:08;94687.50;;;9.17;100.00
20077;BME280;12348;42.710;23.378;2023-04-19T04:56:35;94689.72;;;9.29;100.00
20077;BME280;12348;42.710;23.378;2023-04-19T04:59:02;94682.84;;;9.22;100.00
20077;BME280;12348;42.710;23.378;2023-04-19T05:01:29;94691.50;;;9.19;100.00
20077;BME280;12348;42.710;23.378;2023-04-19T05:03:56;94683.44;;;9.19;100.00
20077;BME280;12348;42.710;23.378;2023-04-19T05:06:24;94690.09;;;9.22;100.00
20077;BME280;12348;42.710;23.378;2023-04-19T05:08:51;94695.53;;;9.36;100.00
20077;BME280;12348;42.710;23.378;2023-04-19T05:11:19;94695.97;;;9.43;100.00
20077;BME280;12348;42.710;23.378;2023-04-19T05:13:46;94688.13;;;9.46;100.00
20077;BME280;12348;42.710;23.378;2023-04-19T05:16:13;94690.56;;;9.62;100.00
20077;BME280;12348;42.710;23.378;2023-04-19T05:18:39;94698.41;;;9.58;100.00
20077;BME280;12348;42.710;23.378;2023-04-19T05:21:06;94692.06;;;9.68;100.00
20077;BME280;12348;42.710;23.378;2023-04-19T05:23:37;94689.19;;;9.78;100.00
20077;BME280;12348;42.710;23.378;2023-04-19T05:26:06;94694.00;;;9.81;100.00
20077;BME280;12348;42.710;23.378;2023-04-19T05:28:36;94690.44;;;10.00;100.00
20077;BME280;12348;42.710;23.378;2023-04-19T05:31:03;94688.53;;;10.00;100.00
20077;BME280;12348;42.710;23.378;2023-04-19T05:33:30;94696.41;;;9.96;100.00
20077;BME280;12348;42.710;23.378;2023-04-19T05:35:57;94696.22;;;10.07;100.00
20077;BME280;12348;42.710;23.378;2023-04-19T05:38:24;94696.19;;;10.26;100.00
20077;BME280;12348;42.710;23.378;2023-04-19T05:40:52;94706.25;;;10.48;100.00
20077;BME280;12348;42.710;23.378;2023-04-19T05:43:19;94703.19;;;10.68;100.00
20077;BME280;12348;42.710;23.378;2023-04-19T05:45:46;94695.38;;;10.66;100.00
20077;BME280;12348;42.710;23.378;2023-04-19T05:48:16;94696.28;;;10.76;100.00
20077;BME280;12348;42.710;23.378;2023-04-19T05:50:43;94693.09;;;10.60;100.00
20077;BME280;12348;42.710;23.378;2023-04-19T05:53:09;94698.91;;;10.39;100.00
20077;BME280;12348;42.710;23.378;2023-04-19T05:55:37;94700.69;;;10.44;100.00
20077;BME280;12348;42.710;23.378;2023-04-19T05:58:06;94696.50;;;10.52;100.00
20077;BME280;12348;42.710;23.378;2023-04-19T06:00:33;94703.56;;;10.48;100.00
20077;BME280;12348;42.710;23.378;2023-04-19T06:03:00;94703.06;;;10.73;100.00
20077;BME280;12348;42.710;23.378;2023-04-19T06:05:26;94707.50;;;11.05;100.00
20077;BME280;12348;42.710;23.378;2023-04-19T06:07:55;94701.38;;;11.50;100.00
20077;BME280;12348;42.710;23.378;2023-04-19T06:10:22;94703.59;;;11.70;100.00
20077;BME280;12348;42.710;23.378;2023-04-19T06:12:49;94705.69;;;11.73;100.00
20077;BME280;12348;42.710;23.378;2023-04-19T06:15:18;94702.75;;;11.83;100.00
20077;BME280;12348;42.710;23.378;2023-04-19T06:17:48;94702.88;;;11.78;100.00
20077;BME280;12348;42.710;23.378;2023-04-19T06:20:15;94705.50;;;11.70;100.00
20077;BME280;12348;42.710;23.378;2023-04-19T06:22:43;94698.88;;;11.98;100.00
20077;BME280;12348;42.710;23.378;2023-04-19T06:25:11;94706.28;;;11.84;100.00
20077;BME280;12348;42.710;23.378;2023-04-19T06:27:37;94702.25;;;12.04;100.00
20077;BME280;12348;42.710;23.378;2023-04-19T06:30:05;94705.75;;;12.04;100.00
20077;BME280;12348;42.710;23.378;2023-04-19T06:32:34;94695.78;;;12.45;100.00
20077;BME280;12348;42.710;23.378;2023-04-19T06:35:01;94701.63;;;12.78;100.00
20077;BME280;12348;42.710;23.378;2023-04-19T06:37:29;94697.47;;;12.80;100.00
20077;BME280;12348;42.710;23.378;2023-04-19T06:39:56;94692.16;;;14.02;100.00
20077;BME280;12348;42.710;23.378;2023-04-19T06:42:23;94698.72;;;14.86;100.00
20077;BME280;12348;42.710;23.378;2023-04-19T06:44:50;94699.63;;;14.99;98.25
20077;BME280;12348;42.710;23.378;2023-04-19T06:47:17;94698.00;;;15.48;92.76
20077;BME280;12348;42.710;23.378;2023-04-19T06:49:46;94696.81;;;15.79;90.30
20077;BME280;12348;42.710;23.378;2023-04-19T06:52:12;94699.31;;;15.63;88.92
20077;BME280;12348;42.710;23.378;2023-04-19T06:54:39;94702.16;;;15.46;90.16
20077;BME280;12348;42.710;23.378;2023-04-19T06:57:06;94710.09;;;16.14;88.13
20077;BME280;12348;42.710;23.378;2023-04-19T06:59:33;94702.34;;;16.37;86.67
20077;BME280;12348;42.710;23.378;2023-04-19T07:02:04;94707.34;;;16.47;84.03
20077;BME280;12348;42.710;23.378;2023-04-19T07:04:30;94709.31;;;16.26;85.56
20077;BME280;12348;42.710;23.378;2023-04-19T07:06:59;94713.94;;;15.80;85.68
20077;BME280;12348;42.710;23.378;2023-04-19T07:09:26;94708.91;;;16.36;84.90
20077;BME280;12348;42.710;23.378;2023-04-19T07:11:52;94710.69;;;16.32;82.93
20077;BME280;12348;42.710;23.378;2023-04-19T07:14:19;94708.38;;;16.55;82.40
20077;BME280;12348;42.710;23.378;2023-04-19T07:16:48;94711.63;;;16.36;82.89
20077;BME280;12348;42.710;23.378;2023-04-19T07:19:15;94713.84;;;16.21;83.51
20077;BME280;12348;42.710;23.378;2023-04-19T07:21:43;94717.03;;;15.69;86.01
20077;BME280;12348;42.710;23.378;2023-04-19T07:24:11;94713.47;;;15.27;87.40
20077;BME280;12348;42.710;23.378;2023-04-19T07:26:38;94724.84;;;15.20;89.21
20077;BME280;12348;42.710;23.378;2023-04-19T07:29:05;94726.91;;;14.47;93.83
20077;BME280;12348;42.710;23.378;2023-04-19T07:31:32;94718.63;;;14.52;93.53
20077;BME280;12348;42.710;23.378;2023-04-19T07:33:59;94725.69;;;14.83;92.81
20077;BME280;12348;42.710;23.378;2023-04-19T07:36:27;94723.50;;;14.76;93.53
20077;BME280;12348;42.710;23.378;2023-04-19T07:38:54;94724.84;;;14.44;97.09
20077;BME280;12348;42.710;23.378;2023-04-19T07:41:22;94721.78;;;14.71;95.78
20077;BME280;12348;42.710;23.378;2023-04-19T07:43:49;94720.38;;;14.95;92.43
20077;BME280;12348;42.710;23.378;2023-04-19T07:46:15;94722.50;;;14.81;93.36
20077;BME280;12348;42.710;23.378;2023-04-19T07:48:42;94728.38;;;14.53;93.51
20077;BME280;12348;42.710;23.378;2023-04-19T07:51:11;94721.50;;;14.47;94.38
20077;BME280;12348;42.710;23.378;2023-04-19T07:53:39;94716.41;;;14.45;95.24
20077;BME280;12348;42.710;23.378;2023-04-19T07:56:07;94720.28;;;14.18;96.99
20077;BME280;12348;42.710;23.378;2023-04-19T07:58:35;94719.53;;;13.92;99.18
20077;BME280;12348;42.710;23.378;2023-04-19T08:01:03;94717.66;;;13.66;100.00
20077;BME280;12348;42.710;23.378;2023-04-19T08:03:29;94723.22;;;13.61;100.00
20077;BME280;12348;42.710;23.378;2023-04-19T08:06:00;94727.03;;;13.77;100.00
20077;BME280;12348;42.710;23.378;2023-04-19T08:08:27;94715.53;;;14.06;98.41
20077;BME280;12348;42.710;23.378;2023-04-19T08:10:53;94723.31;;;14.25;96.78
20077;BME280;12348;42.710;23.378;2023-04-19T08:13:20;94718.59;;;14.05;98.15
20077;BME280;12348;42.710;23.378;2023-04-19T08:15:48;94731.31;;;13.96;99.19
20077;BME280;12348;42.710;23.378;2023-04-19T08:18:15;94726.72;;;13.88;99.74
20077;BME280;12348;42.710;23.378;2023-04-19T08:20:42;94727.13;;;14.24;98.04
20077;BME280;12348;42.710;23.378;2023-04-19T08:23:10;94724.19;;;13.74;99.57
20077;BME280;12348;42.710;23.378;2023-04-19T08:25:37;94724.81;;;13.88;100.00
20077;BME280;12348;42.710;23.378;2023-04-19T08:28:04;94724.97;;;13.83;100.00
20077;BME280;12348;42.710;23.378;2023-04-19T08:30:31;94721.63;;;13.77;100.00
20077;BME280;12348;42.710;23.378;2023-04-19T08:33:00;94723.06;;;14.01;100.00
20077;BME280;12348;42.710;23.378;2023-04-19T08:35:27;94710.63;;;13.91;100.00
20077;BME280;12348;42.710;23.378;2023-04-19T08:37:54;94713.56;;;14.33;100.00
20077;BME280;12348;42.710;23.378;2023-04-19T08:40:20;94707.91;;;14.09;100.00
20077;BME280;12348;42.710;23.378;2023-04-19T08:42:47;94706.44;;;14.11;100.00
20077;BME280;12348;42.710;23.378;2023-04-19T08:45:15;94707.97;;;14.47;98.60
20077;BME280;12348;42.710;23.378;2023-04-19T08:47:42;94706.28;;;14.72;98.46
20077;BME280;12348;42.710;23.378;2023-04-19T08:50:11;94706.66;;;15.21;91.03
20077;BME280;12348;42.710;23.378;2023-04-19T08:52:38;94702.22;;;15.16;89.47
20077;BME280;12348;42.710;23.378;2023-04-19T08:55:07;94696.94;;;15.20;88.46
20077;BME280;12348;42.710;23.378;2023-04-19T08:57:34;94701.69;;;15.23;88.16
20077;BME280;12348;42.710;23.378;2023-04-19T09:00:02;94701.13;;;15.59;86.98
20077;BME280;12348;42.710;23.378;2023-04-19T09:02:44;94698.75;;;15.79;85.21
20077;BME280;12348;42.710;23.378;2023-04-19T09:05:13;94695.97;;;15.66;84.94
20077;BME280;12348;42.710;23.378;2023-04-19T09:07:40;94697.16;;;16.11;82.43
20077;BME280;12348;42.710;23.378;2023-04-19T09:10:09;94686.44;;;16.84;80.39
20077;BME280;12348;42.710;23.378;2023-04-19T09:12:36;94680.75;;;17.66;77.52
20077;BME280;12348;42.710;23.378;2023-04-19T09:15:05;94679.59;;;18.08;75.04
20077;BME280;12348;42.710;23.378;2023-04-19T09:17:33;94683.31;;;18.15;73.38
20077;BME280;12348;42.710;23.378;2023-04-19T09:20:01;94683.41;;;20.04;67.26
20077;BME280;12348;42.710;23.378;2023-04-19T09:22:30;94679.41;;;21.09;60.79
20077;BME280;12348;42.710;23.378;2023-04-19T09:24:57;94670.53;;;22.02;57.01
20077;BME280;12348;42.710;23.378;2023-04-19T09:27:27;94671.91;;;22.94;53.57
20077;BME280;12348;42.710;23.378;2023-04-19T09:29:55;94677.19;;;23.76;50.96
20077;BME280;12348;42.710;23.378;2023-04-19T09:32:21;94674.22;;;24.20;47.92
20077;BME280;12348;42.710;23.378;2023-04-19T09:34:53;94674.66;;;23.49;50.26
20077;BME280;12348;42.710;23.378;2023-04-19T09:37:20;94671.72;;;23.79;48.96
20077;BME280;12348;42.710;23.378;2023-04-19T09:39:49;94671.09;;;24.29;48.73
20077;BME280;12348;42.710;23.378;2023-04-19T09:42:16;94673.13;;;24.39;46.62
20077;BME280;12348;42.710;23.378;2023-04-19T09:44:59;94669.72;;;23.76;47.78
20077;BME280;12348;42.710;23.378;2023-04-19T09:47:27;94667.66;;;23.66;48.31
20077;BME280;12348;42.710;23.378;2023-04-19T09:50:06;94663.59;;;24.22;46.24
20077;BME280;12348;42.710;23.378;2023-04-19T09:52:33;94642.50;;;24.98;44.61
20077;BME280;12348;42.710;23.378;2023-04-19T09:55:04;94645.16;;;24.33;44.71
20077;BME280;12348;42.710;23.378;2023-04-19T09:57:32;94643.59;;;23.45;46.28
20077;BME280;12348;42.710;23.378;2023-04-19T10:00:00;94644.22;;;23.17;47.87
20077;BME280;12348;42.710;23.378;2023-04-19T10:02:30;94647.19;;;23.60;46.78
20077;BME280;12348;42.710;23.378;2023-04-19T10:04:58;94645.91;;;23.36;46.71
20077;BME280;12348;42.710;23.378;2023-04-19T10:07:26;94646.63;;;23.99;44.92
20077;BME280;12348;42.710;23.378;2023-04-19T10:09:54;94638.38;;;23.95;46.20
20077;BME280;12348;42.710;23.378;2023-04-19T10:12:24;94643.69;;;23.63;45.60
20077;BME280;12348;42.710;23.378;2023-04-19T10:14:53;94637.50;;;23.77;45.62
20077;BME280;12348;42.710;23.378;2023-04-19T10:17:21;94630.16;;;23.29;46.92
20077;BME280;12348;42.710;23.378;2023-04-19T10:19:51;94629.75;;;23.23;48.72
20077;BME280;12348;42.710;23.378;2023-04-19T10:22:20;94621.84;;;22.67;49.63
20077;BME280;12348;42.710;23.378;2023-04-19T10:25:06;94632.13;;;22.02;50.66
20077;BME280;12348;42.710;23.378;2023-04-19T10:27:36;94636.19;;;21.22;52.26
20077;BME280;12348;42.710;23.378;2023-04-19T10:30:03;94624.19;;;21.30;51.97
20077;BME280;12348;42.710;23.378;2023-04-19T10:32:37;94624.97;;;21.91;50.19
20077;BME280;12348;42.710;23.378;2023-04-19T10:35:07;94621.59;;;21.71;49.66
20077;BME280;12348;42.710;23.378;2023-04-19T10:37:38;94623.97;;;21.72;50.90
20077;BME280;12348;42.710;23.378;2023-04-19T10:40:08;94619.63;;;21.38;51.93
20077;BME280;12348;42.710;23.378;2023-04-19T10:43:15;94620.28;;;21.04;54.99
20077;BME280;12348;42.710;23.378;2023-04-19T10:45:42;94614.31;;;20.95;54.02
20077;BME280;12348;42.710;23.378;2023-04-19T10:48:31;94613.09;;;20.93;55.44
20077;BME280;12348;42.710;23.378;2023-04-19T10:50:58;94609.94;;;20.68;55.36
20077;BME280;12348;42.710;23.378;2023-04-19T10:53:45;94614.47;;;19.91;56.04
20077;BME280;12348;42.710;23.378;2023-04-19T10:56:13;94607.06;;;19.92;57.39
20077;BME280;12348;42.710;23.378;2023-04-19T10:59:16;94603.16;;;19.54;57.99
20077;BME280;12348;42.710;23.378;2023-04-19T11:01:51;94604.00;;;18.84;57.98
20077;BME280;12348;42.710;23.378;2023-04-19T11:04:20;94606.09;;;19.45;57.08
20077;BME280;12348;42.710;23.378;2023-04-19T11:06:58;94602.88;;;19.78;56.64
20077;BME280;12348;42.710;23.378;2023-04-19T11:09:30;94592.94;;;20.32;56.52
20077;BME280;12348;42.710;23.378;2023-04-19T11:11:59;94601.69;;;20.41;53.79
20077;BME280;12348;42.710;23.378;2023-04-19T11:14:33;94596.56;;;20.86;51.01
20077;BME280;12348;42.710;23.378;2023-04-19T11:17:02;94590.09;;;20.25;54.36
20077;BME280;12348;42.710;23.378;2023-04-19T11:19:30;94600.53;;;19.77;55.78
20077;BME280;12348;42.710;23.378;2023-04-19T11:21:57;94585.94;;;20.34;53.74
20077;BME280;12348;42.710;23.378;2023-04-19T11:24:25;94579.84;;;20.68;52.73
20077;BME280;12348;42.710;23.378;2023-04-19T11:26:52;94583.69;;;20.63;55.17
20077;BME280;12348;42.710;23.378;2023-04-19T11:29:21;94590.13;;;21.01;53.14
20077;BME280;12348;42.710;23.378;2023-04-19T11:31:49;94586.56;;;21.27;51.42
20077;BME280;12348;42.710;23.378;2023-04-19T11:34:16;94581.53;;;21.59;52.56
20077;BME280;12348;42.710;23.378;2023-04-19T11:36:48;94587.06;;;21.06;52.42
20077;BME280;12348;42.710;23.378;2023-04-19T11:39:15;94580.25;;;21.23;50.80
20077;BME280;12348;42.710;23.378;2023-04-19T11:41:41;94588.13;;;21.88;47.86
20077;BME280;12348;42.710;23.378;2023-04-19T11:44:18;94566.72;;;21.64;48.24
20077;BME280;12348;42.710;23.378;2023-04-19T11:47:01;94579.09;;;21.24;48.28
20077;BME280;12348;42.710;23.378;2023-04-19T11:49:28;94581.09;;;21.27;48.45
20077;BME280;12348;42.710;23.378;2023-04-19T11:51:57;94578.28;;;21.50;49.02
20077;BME280;12348;42.710;23.378;2023-04-19T11:54:24;94579.00;;;20.64;51.40
20077;BME280;12348;42.710;23.378;2023-04-19T11:57:01;94574.59;;;20.09;52.91
20077;BME280;12348;42.710;23.378;2023-04-19T11:59:33;94570.28;;;19.11;57.33
20077;BME280;12348;42.710;23.378;2023-04-19T12:02:09;94581.84;;;18.06;67.89
20077;BME280;12348;42.710;23.378;2023-04-19T12:04:36;94575.72;;;17.25;74.66
20077;BME280;12348;42.710;23.378;2023-04-19T12:07:04;94579.25;;;16.85;79.36
20077;BME280;12348;42.710;23.378;2023-04-19T12:09:33;94583.56;;;16.62;80.90
20077;BME280;12348;42.710;23.378;2023-04-19T12:12:01;94582.53;;;16.17;84.14
20077;BME280;12348;42.710;23.378;2023-04-19T12:14:28;94576.81;;;15.86;86.63
20077;BME280;12348;42.710;23.378;2023-04-19T12:17:08;94571.63;;;15.26;92.25
20077;BME280;12348;42.710;23.378;2023-04-19T12:19:36;94575.72;;;15.33;93.60
20077;BME280;12348;42.710;23.378;2023-04-19T12:22:13;94581.25;;;15.24;94.89
20077;BME280;12348;42.710;23.378;2023-04-19T12:24:41;94575.44;;;15.13;93.88
20077;BME280;12348;42.710;23.378;2023-04-19T12:27:09;94574.59;;;15.34;92.98
20077;BME280;12348;42.710;23.378;2023-04-19T12:29:37;94564.22;;;15.36;89.63
20077;BME280;12348;42.710;23.378;2023-04-19T12:32:05;94563.03;;;15.24;88.00
20077;BME280;12348;42.710;23.378;2023-04-19T12:34:33;94563.88;;;15.37;85.38
20077;BME280;12348;42.710;23.378;2023-04-19T12:37:00;94567.34;;;15.25;86.26
20077;BME280;12348;42.710;23.378;2023-04-19T12:39:28;94563.13;;;15.49;85.47
20077;BME280;12348;42.710;23.378;2023-04-19T12:41:55;94563.72;;;15.55;84.69
20077;BME280;12348;42.710;23.378;2023-04-19T12:44:22;94564.72;;;15.50;82.54
20077;BME280;12348;42.710;23.378;2023-04-19T12:46:48;94569.47;;;15.53;82.41
20077;BME280;12348;42.710;23.378;2023-04-19T12:49:17;94558.25;;;15.42;81.18
20077;BME280;12348;42.710;23.378;2023-04-19T12:51:46;94570.72;;;15.56;81.10
20077;BME280;12348;42.710;23.378;2023-04-19T12:54:13;94563.88;;;15.37;84.81